sensor_id;sensor_type;location;lat;lon;timestamp;temperature;humidity
35027;DHT22;60696;51.426;6.934;2023-08-31T04:00:22;11.40;99.90
35027;DHT22;60696;51.426;6.934;2023-08-31T04:02:47;11.40;99.90
35027;DHT22;60696;51.426;6.934;2023-08-31T04:05:13;11.40;99.90
35027;DHT22;60696;51.426;6.934;2023-08-31T04:07:40;11.30;99.90
35027;DHT22;60696;51.426;6.934;2023-08-31T04:10:06;11.30;99.90
35027;DHT22;60696;51.426;6.934;2023-08-31T04:12:33;11.20;99.90
35027;DHT22;60696;51.426;6.934;2023-08-31T04:15:00;11.20;99.90
35027;DHT22;60696;51.426;6.934;2023-08-31T04:17:25;11.20;99.90
35027;DHT22;60696;51.426;6.934;2023-08-31T04:19:51;11.10;99.90
35027;DHT22;60696;51.426;6.934;2023-08-31T04:22:17;11.20;99.90
35027;DHT22;60696;51.426;6.934;2023-08-31T04:24:42;11.10;99.90
35027;DHT22;60696;51.426;6.934;2023-08-31T04:27:08;11.10;99.90
35027;DHT22;60696;51.426;6.934;2023-08-31T04:29:33;11.10;99.90
35027;DHT22;60696;51.426;6.934;2023-08-31T04:31:59;11.10;99.90
35027;DHT22;60696;51.426;6.934;2023-08-31T04:34:25;11.10;99.90
35027;DHT22;60696;51.426;6.934;2023-08-31T04:36:51;11.10;99.90
35027;DHT22;60696;51.426;6.934;2023-08-31T04:39:17;11.10;99.90
35027;DHT22;60696;51.426;6.934;2023-08-31T04:41:43;11.00;99.90
35027;DHT22;60696;51.426;6.934;2023-08-31T04:44:09;11.00;99.90
35027;DHT22;60696;51.426;6.934;2023-08-31T04:46:34;11.00;99.90
35027;DHT22;60696;51.426;6.934;2023-08-31T04:49:00;11.00;99.90
35027;DHT22;60696;51.426;6.934;2023-08-31T04:51:30;11.00;99.90
35027;DHT22;60696;51.426;6.934;2023-08-31T04:53:58;11.00;99.90
35027;DHT22;60696;51.426;6.934;2023-08-31T04:56:23;11.00;99.90
35027;DHT22;60696;51.426;6.934;2023-08-31T04:58:49;11.10;99.90
35027;DHT22;60696;51.426;6.934;2023-08-31T05:01:15;11.10;99.90
35027;DHT22;60696;51.426;6.934;2023-08-31T05:03:41;11.20;99.90
35027;DHT22;60696;51.426;6.934;2023-08-31T05:06:07;11.30;99.90
35027;DHT22;60696;51.426;6.934;2023-08-31T05:08:33;11.30;99.90
35027;DHT22;60696;51.426;6.934;2023-08-31T05:10:59;11.30;99.90
35027;DHT22;60696;51.426;6.934;2023-08-31T05:13:24;11.40;99.90
35027;DHT22;60696;51.426;6.934;2023-08-31T05:15:50;11.50;99.90
35027;DHT22;60696;51.426;6.934;2023-08-31T05:18:16;11.60;99.90
35027;DHT22;60696;51.426;6.934;2023-08-31T05:20:45;11.60;99.90
35027;DHT22;60696;51.426;6.934;2023-08-31T05:23:11;11.70;99.90
35027;DHT22;60696;51.426;6.934;2023-08-31T05:25:44;11.70;99.90
35027;DHT22;60696;51.426;6.934;2023-08-31T05:28:10;11.80;99.90
35027;DHT22;60696;51.426;6.934;2023-08-31T05:30:35;12.00;99.90
35027;DHT22;60696;51.426;6.934;2023-08-31T05:33:01;12.10;99.90
35027;DHT22;60696;51.426;6.934;2023-08-31T05:35:27;12.20;99.90
35027;DHT22;60696;51.426;6.934;2023-08-31T05:37:52;12.20;99.90
35027;DHT22;60696;51.426;6.934;2023-08-31T05:40:18;12.20;99.90
35027;DHT22;60696;51.426;6.934;2023-08-31T05:42:44;12.30;99.90
35027;DHT22;60696;51.426;6.934;2023-08-31T05:45:10;12.30;99.90
35027;DHT22;60696;51.426;6.934;2023-08-31T05:47:35;12.40;99.90
35027;DHT22;60696;51.426;6.934;2023-08-31T05:50:01;12.50;99.90
35027;DHT22;60696;51.426;6.934;2023-08-31T05:52:28;12.60;99.90
35027;DHT22;60696;51.426;6.934;2023-08-31T05:54:53;12.70;99.90
35027;DHT22;60696;51.426;6.934;2023-08-31T05:57:19;13.10;99.90
35027;DHT22;60696;51.426;6.934;2023-08-31T05:59:47;13.60;99.90
35027;DHT22;60696;51.426;6.934;2023-08-31T06:02:13;13.70;99.90
35027;DHT22;60696;51.426;6.934;2023-08-31T06:04:38;13.80;99.90
35027;DHT22;60696;51.426;6.934;2023-08-31T06:07:04;14.00;99.90
35027;DHT22;60696;51.426;6.934;2023-08-31T06:09:29;13.80;99.90
35027;DHT22;60696;51.426;6.934;2023-08-31T06:11:55;13.70;99.90
35027;DHT22;60696;51.426;6.934;2023-08-31T06:14:21;14.40;99.90
35027;DHT22;60696;51.426;6.934;2023-08-31T06:16:46;14.80;99.90
35027;DHT22;60696;51.426;6.934;2023-08-31T06:19:12;14.60;99.90
35027;DHT22;60696;51.426;6.934;2023-08-31T06:21:41;14.90;99.90
35027;DHT22;60696;51.426;6.934;2023-08-31T06:24:07;15.70;99.90
35027;DHT22;60696;51.426;6.934;2023-08-31T06:26:35;16.90;99.90
35027;DHT22;60696;51.426;6.934;2023-08-31T06:29:01;17.70;99.90
35027;DHT22;60696;51.426;6.934;2023-08-31T06:31:29;18.20;99.90
35027;DHT22;60696;51.426;6.934;2023-08-31T06:33:55;18.50;99.90
35027;DHT22;60696;51.426;6.934;2023-08-31T06:36:20;19.00;99.90
35027;DHT22;60696;51.426;6.934;2023-08-31T06:38:46;19.30;99.90
35027;DHT22;60696;51.426;6.934;2023-08-31T06:41:11;19.50;99.90
35027;DHT22;60696;51.426;6.934;2023-08-31T06:43:37;20.00;99.90
35027;DHT22;60696;51.426;6.934;2023-08-31T06:46:03;20.20;99.90
35027;DHT22;60696;51.426;6.934;2023-08-31T06:48:28;20.60;99.90
35027;DHT22;60696;51.426;6.934;2023-08-31T06:50:54;21.10;99.90
35027;DHT22;60696;51.426;6.934;2023-08-31T06:53:20;20.40;99.90
35027;DHT22;60696;51.426;6.934;2023-08-31T06:55:45;19.60;99.90
35027;DHT22;60696;51.426;6.934;2023-08-31T06:58:11;19.00;99.90
35027;DHT22;60696;51.426;6.934;2023-08-31T07:00:36;19.20;99.90
35027;DHT22;60696;51.426;6.934;2023-08-31T07:03:02;19.80;99.90
35027;DHT22;60696;51.426;6.934;2023-08-31T07:05:33;20.30;99.90
35027;DHT22;60696;51.426;6.934;2023-08-31T07:08:01;21.30;99.60
35027;DHT22;60696;51.426;6.934;2023-08-31T07:10:27;22.50;96.90
35027;DHT22;60696;51.426;6.934;2023-08-31T07:12:53;22.50;95.80
35027;DHT22;60696;51.426;6.934;2023-08-31T07:15:19;22.40;94.80
35027;DHT22;60696;51.426;6.934;2023-08-31T07:17:44;22.60;94.80
35027;DHT22;60696;51.426;6.934;2023-08-31T07:20:12;23.10;94.80
35027;DHT22;60696;51.426;6.934;2023-08-31T07:22:37;23.60;92.40
35027;DHT22;60696;51.426;6.934;2023-08-31T07:25:04;23.40;91.40
35027;DHT22;60696;51.426;6.934;2023-08-31T07:27:31;23.40;91.50
35027;DHT22;60696;51.426;6.934;2023-08-31T07:29:57;23.50;90.70
35027;DHT22;60696;51.426;6.934;2023-08-31T07:32:22;23.70;89.60
35027;DHT22;60696;51.426;6.934;2023-08-31T07:34:48;24.70;89.20
35027;DHT22;60696;51.426;6.934;2023-08-31T07:37:13;25.00;84.60
35027;DHT22;60696;51.426;6.934;2023-08-31T07:39:39;24.20;86.50
35027;DHT22;60696;51.426;6.934;2023-08-31T07:42:05;24.80;85.90
35027;DHT22;60696;51.426;6.934;2023-08-31T07:44:31;26.00;83.10
35027;DHT22;60696;51.426;6.934;2023-08-31T07:46:57;25.70;73.90
35027;DHT22;60696;51.426;6.934;2023-08-31T07:49:22;25.90;77.40
35027;DHT22;60696;51.426;6.934;2023-08-31T07:51:48;26.40;76.30
35027;DHT22;60696;51.426;6.934;2023-08-31T07:54:23;26.60;74.70
35027;DHT22;60696;51.426;6.934;2023-08-31T07:56:49;26.60;70.20
35027;DHT22;60696;51.426;6.934;2023-08-31T07:59:16;26.40;68.90
35027;DHT22;60696;51.426;6.934;2023-08-31T08:01:43;26.10;72.90
35027;DHT22;60696;51.426;6.934;2023-08-31T08:04:08;26.20;74.10
35027;DHT22;60696;51.426;6.934;2023-08-31T08:06:34;26.60;70.20
35027;DHT22;60696;51.426;6.934;2023-08-31T08:09:00;26.60;70.00
35027;DHT22;60696;51.426;6.934;2023-08-31T08:11:25;26.90;70.00
35027;DHT22;60696;51.426;6.934;2023-08-31T08:13:51;27.60;69.20
35027;DHT22;60696;51.426;6.934;2023-08-31T08:16:16;27.10;63.70
35027;DHT22;60696;51.426;6.934;2023-08-31T08:18:42;27.30;65.10
35027;DHT22;60696;51.426;6.934;2023-08-31T08:21:07;27.50;64.10
35027;DHT22;60696;51.426;6.934;2023-08-31T08:23:33;27.30;64.20
35027;DHT22;60696;51.426;6.934;2023-08-31T08:25:58;27.20;64.10
35027;DHT22;60696;51.426;6.934;2023-08-31T08:28:27;27.30;64.00
35027;DHT22;60696;51.426;6.934;2023-08-31T08:30:53;26.80;66.60
35027;DHT22;60696;51.426;6.934;2023-08-31T08:33:19;26.60;64.40
35027;DHT22;60696;51.426;6.934;2023-08-31T08:35:44;27.20;64.80
35027;DHT22;60696;51.426;6.934;2023-08-31T08:38:11;27.10;65.60
35027;DHT22;60696;51.426;6.934;2023-08-31T08:40:37;27.10;63.70
35027;DHT22;60696;51.426;6.934;2023-08-31T08:43:07;27.00;63.40
35027;DHT22;60696;51.426;6.934;2023-08-31T08:45:38;27.30;64.40
35027;DHT22;60696;51.426;6.934;2023-08-31T08:48:08;28.00;59.10
35027;DHT22;60696;51.426;6.934;2023-08-31T08:50:35;28.20;58.40
35027;DHT22;60696;51.426;6.934;2023-08-31T08:53:04;28.20;59.00
35027;DHT22;60696;51.426;6.934;2023-08-31T08:55:30;29.50;59.60
35027;DHT22;60696;51.426;6.934;2023-08-31T08:57:58;29.70;55.60
35027;DHT22;60696;51.426;6.934;2023-08-31T09:00:26;30.20;53.20
35027;DHT22;60696;51.426;6.934;2023-08-31T09:02:53;29.90;51.40
35027;DHT22;60696;51.426;6.934;2023-08-31T09:05:18;29.50;51.50
35027;DHT22;60696;51.426;6.934;2023-08-31T09:08:03;29.40;48.90
35027;DHT22;60696;51.426;6.934;2023-08-31T09:10:34;28.80;53.00
35027;DHT22;60696;51.426;6.934;2023-08-31T09:13:00;28.70;51.40
35027;DHT22;60696;51.426;6.934;2023-08-31T09:15:26;29.10;54.40
35027;DHT22;60696;51.426;6.934;2023-08-31T09:17:51;29.70;51.50
35027;DHT22;60696;51.426;6.934;2023-08-31T09:20:17;29.80;51.90
35027;DHT22;60696;51.426;6.934;2023-08-31T09:22:43;29.90;49.40
35027;DHT22;60696;51.426;6.934;2023-08-31T09:25:12;29.10;48.10
35027;DHT22;60696;51.426;6.934;2023-08-31T09:27:38;28.00;52.20
35027;DHT22;60696;51.426;6.934;2023-08-31T09:30:05;27.90;51.00
35027;DHT22;60696;51.426;6.934;2023-08-31T09:32:31;26.40;57.00
35027;DHT22;60696;51.426;6.934;2023-08-31T09:34:58;26.50;57.40
35027;DHT22;60696;51.426;6.934;2023-08-31T09:37:28;26.80;55.30
35027;DHT22;60696;51.426;6.934;2023-08-31T09:39:53;27.80;54.80
35027;DHT22;60696;51.426;6.934;2023-08-31T09:42:19;28.40;52.20
35027;DHT22;60696;51.426;6.934;2023-08-31T09:44:45;27.20;52.70
35027;DHT22;60696;51.426;6.934;2023-08-31T09:47:14;26.30;58.90
35027;DHT22;60696;51.426;6.934;2023-08-31T09:49:41;26.10;59.20
35027;DHT22;60696;51.426;6.934;2023-08-31T09:52:09;25.10;62.90
35027;DHT22;60696;51.426;6.934;2023-08-31T09:54:35;24.90;69.50
35027;DHT22;60696;51.426;6.934;2023-08-31T09:57:02;24.70;62.30
35027;DHT22;60696;51.426;6.934;2023-08-31T09:59:28;23.60;69.20
35027;DHT22;60696;51.426;6.934;2023-08-31T10:01:54;22.70;76.50
35027;DHT22;60696;51.426;6.934;2023-08-31T10:04:22;21.90;83.40
35027;DHT22;60696;51.426;6.934;2023-08-31T10:06:49;21.30;85.80
35027;DHT22;60696;51.426;6.934;2023-08-31T10:09:16;20.80;99.90
35027;DHT22;60696;51.426;6.934;2023-08-31T10:11:42;21.00;1.00
35027;DHT22;60696;51.426;6.934;2023-08-31T10:14:09;21.30;1.00
35027;DHT22;60696;51.426;6.934;2023-08-31T10:16:36;20.90;99.90
35027;DHT22;60696;51.426;6.934;2023-08-31T10:19:04;20.60;1.00
35027;DHT22;60696;51.426;6.934;2023-08-31T10:21:29;20.80;1.00
35027;DHT22;60696;51.426;6.934;2023-08-31T10:23:55;20.40;1.00
35027;DHT22;60696;51.426;6.934;2023-08-31T10:26:27;20.00;1.00
35027;DHT22;60696;51.426;6.934;2023-08-31T10:28:53;20.10;99.90
35027;DHT22;60696;51.426;6.934;2023-08-31T10:31:20;20.20;99.90
35027;DHT22;60696;51.426;6.934;2023-08-31T10:34:07;20.50;27.50
35027;DHT22;60696;51.426;6.934;2023-08-31T10:36:40;20.60;1.00
35027;DHT22;60696;51.426;6.934;2023-08-31T10:39:17;20.80;1.00
35027;DHT22;60696;51.426;6.934;2023-08-31T10:41:57;20.90;1.00
35027;DHT22;60696;51.426;6.934;2023-08-31T10:44:27;20.70;1.00
35027;DHT22;60696;51.426;6.934;2023-08-31T10:46:54;20.40;54.60
35027;DHT22;60696;51.426;6.934;2023-08-31T10:49:23;20.30;3.10
35027;DHT22;60696;51.426;6.934;2023-08-31T10:51:55;20.80;99.90
35027;DHT22;60696;51.426;6.934;2023-08-31T10:54:24;21.40;51.00
35027;DHT22;60696;51.426;6.934;2023-08-31T10:59:44;22.00;1.00
35027;DHT22;60696;51.426;6.934;2023-08-31T11:02:11;21.90;99.90
35027;DHT22;60696;51.426;6.934;2023-08-31T11:04:52;22.10;99.90
35027;DHT22;60696;51.426;6.934;2023-08-31T11:07:19;21.60;99.90
35027;DHT22;60696;51.426;6.934;2023-08-31T11:09:46;21.50;99.90
35027;DHT22;60696;51.426;6.934;2023-08-31T11:12:12;21.30;99.90
35027;DHT22;60696;51.426;6.934;2023-08-31T11:14:39;20.90;99.90
35027;DHT22;60696;51.426;6.934;2023-08-31T11:17:05;20.70;1.00
35027;DHT22;60696;51.426;6.934;2023-08-31T11:19:34;21.40;1.00
35027;DHT22;60696;51.426;6.934;2023-08-31T11:22:01;21.90;99.90
35027;DHT22;60696;51.426;6.934;2023-08-31T11:24:33;21.60;99.90
35027;DHT22;60696;51.426;6.934;2023-08-31T11:26:59;21.30;99.90
35027;DHT22;60696;51.426;6.934;2023-08-31T11:29:25;20.80;1.00
35027;DHT22;60696;51.426;6.934;2023-08-31T11:31:50;20.80;1.00
35027;DHT22;60696;51.426;6.934;2023-08-31T11:34:17;20.70;1.00
35027;DHT22;60696;51.426;6.934;2023-08-31T11:36:44;20.30;99.90
35027;DHT22;60696;51.426;6.934;2023-08-31T11:39:10;20.10;99.90
35027;DHT22;60696;51.426;6.934;2023-08-31T11:41:36;20.10;99.90
35027;DHT22;60696;51.426;6.934;2023-08-31T11:44:06;20.90;1.00
35027;DHT22;60696;51.426;6.934;2023-08-31T11:46:32;21.50;99.90
35027;DHT22;60696;51.426;6.934;2023-08-31T11:48:59;21.90;1.00
35027;DHT22;60696;51.426;6.934;2023-08-31T11:51:26;22.20;99.90
35027;DHT22;60696;51.426;6.934;2023-08-31T11:53:55;22.20;99.90
35027;DHT22;60696;51.426;6.934;2023-08-31T11:56:23;22.00;99.90
35027;DHT22;60696;51.426;6.934;2023-08-31T11:58:51;21.30;1.00
35027;DHT22;60696;51.426;6.934;2023-08-31T12:01:22;21.10;99.90
35027;DHT22;60696;51.426;6.934;2023-08-31T12:03:49;20.70;99.90
35027;DHT22;60696;51.426;6.934;2023-08-31T12:06:18;20.30;79.80
35027;DHT22;60696;51.426;6.934;2023-08-31T12:08:44;20.10;99.90
35027;DHT22;60696;51.426;6.934;2023-08-31T12:11:09;20.10;99.90
35027;DHT22;60696;51.426;6.934;2023-08-31T12:13:35;20.20;99.90
35027;DHT22;60696;51.426;6.934;2023-08-31T12:16:01;20.70;26.20
35027;DHT22;60696;51.426;6.934;2023-08-31T12:18:30;21.00;99.90
35027;DHT22;60696;51.426;6.934;2023-08-31T12:20:58;21.00;99.90
35027;DHT22;60696;51.426;6.934;2023-08-31T12:23:25;20.90;99.90
35027;DHT22;60696;51.426;6.934;2023-08-31T12:25:53;20.70;16.10
35027;DHT22;60696;51.426;6.934;2023-08-31T12:28:20;20.90;99.90
35027;DHT22;60696;51.426;6.934;2023-08-31T12:30:51;20.80;1.00
35027;DHT22;60696;51.426;6.934;2023-08-31T12:33:17;20.80;1.00
35027;DHT22;60696;51.426;6.934;2023-08-31T12:35:43;20.70;54.40
35027;DHT22;60696;51.426;6.934;2023-08-31T12:38:09;20.60;39.10
35027;DHT22;60696;51.426;6.934;2023-08-31T12:40:35;20.50;96.40
35027;DHT22;60696;51.426;6.934;2023-08-31T12:43:01;20.70;99.90
35027;DHT22;60696;51.426;6.934;2023-08-31T12:45:27;20.90;3.60
35027;DHT22;60696;51.426;6.934;2023-08-31T12:47:53;20.90;99.90
35027;DHT22;60696;51.426;6.934;2023-08-31T12:50:18;20.80;46.10
35027;DHT22;60696;51.426;6.934;2023-08-31T12:52:45;20.80;99.90
35027;DHT22;60696;51.426;6.934;2023-08-31T12:55:14;20.90;99.90
35027;DHT22;60696;51.426;6.934;2023-08-31T12:57:40;20.90;99.90
35027;DHT22;60696;51.426;6.934;2023-08-31T13:00:07;20.90;99.90
35027;DHT22;60696;51.426;6.934;2023-08-31T13:02:42;21.10;99.90
35027;DHT22;60696;51.426;6.934;2023-08-31T13:05:10;21.20;85.80
35027;DHT22;60696;51.426;6.934;2023-08-31T13:07:37;21.10;14.40
35027;DHT22;60696;51.426;6.934;2023-08-31T13:10:04;21.10;99.90
35027;DHT22;60696;51.426;6.934;2023-08-31T13:12:33;21.10;99.90
35027;DHT22;60696;51.426;6.934;2023-08-31T13:15:00;20.90;99.90
35027;DHT22;60696;51.426;6.934;2023-08-31T13:17:26;20.90;99.90
35027;DHT22;60696;51.426;6.934;2023-08-31T13:19:56;20.80;99.90
35027;DHT22;60696;51.426;6.934;2023-08-31T13:22:22;20.90;1.00
35027;DHT22;60696;51.426;6.934;2023-08-31T13:24:48;21.00;99.90
35027;DHT22;60696;51.426;6.934;2023-08-31T13:27:14;21.00;99.90
35027;DHT22;60696;51.426;6.934;2023-08-31T13:29:39;21.00;99.90
35027;DHT22;60696;51.426;6.934;2023-08-31T13:32:06;21.10;99.90
35027;DHT22;60696;51.426;6.934;2023-08-31T13:34:33;21.10;99.90
35027;DHT22;60696;51.426;6.934;2023-08-31T13:36:58;20.90;99.90
35027;DHT22;60696;51.426;6.934;2023-08-31T13:39:25;20.70;99.90
35027;DHT22;60696;51.426;6.934;2023-08-31T13:41:51;20.70;1.00
35027;DHT22;60696;51.426;6.934;2023-08-31T13:44:17;20.60;1.00
35027;DHT22;60696;51.426;6.934;2023-08-31T13:46:43;20.50;99.90
35027;DHT22;60696;51.426;6.934;2023-08-31T13:49:09;20.40;1.00
35027;DHT22;60696;51.426;6.934;2023-08-31T13:51:34;20.50;1.00
35027;DHT22;60696;51.426;6.934;2023-08-31T13:54:02;20.50;1.00
35027;DHT22;60696;51.426;6.934;2023-08-31T13:56:29;20.50;27.80
35027;DHT22;60696;51.426;6.934;2023-08-31T13:58:55;20.50;1.00
35027;DHT22;60696;51.426;6.934;2023-08-31T14:01:20;20.50;1.00
35027;DHT22;60696;51.426;6.934;2023-08-31T14:03:46;20.50;1.00
35027;DHT22;60696;51.426;6.934;2023-08-31T14:06:12;20.50;1.00
35027;DHT22;60696;51.426;6.934;2023-08-31T14:08:39;20.60;1.00
35027;DHT22;60696;51.426;6.934;2023-08-31T14:11:06;20.60;75.50
35027;DHT22;60696;51.426;6.934;2023-08-31T14:13:32;20.50;21.50
35027;DHT22;60696;51.426;6.934;2023-08-31T14:15:59;20.20;1.00
35027;DHT22;60696;51.426;6.934;2023-08-31T14:18:26;20.10;1.00
35027;DHT22;60696;51.426;6.934;2023-08-31T14:20:54;19.90;1.00
35027;DHT22;60696;51.426;6.934;2023-08-31T14:23:19;19.70;1.00
35027;DHT22;60696;51.426;6.934;2023-08-31T14:25:45;19.50;1.00
35027;DHT22;60696;51.426;6.934;2023-08-31T14:28:11;19.30;1.00
35027;DHT22;60696;51.426;6.934;2023-08-31T14:30:37;18.50;45.80
35027;DHT22;60696;51.426;6.934;2023-08-31T14:33:04;17.90;82.40
35027;DHT22;60696;51.426;6.934;2023-08-31T14:35:29;17.50;99.90
35027;DHT22;60696;51.426;6.934;2023-08-31T14:37:56;17.30;1.00
35027;DHT22;60696;51.426;6.934;2023-08-31T14:40:22;17.20;99.90
35027;DHT22;60696;51.426;6.934;2023-08-31T14:42:47;17.00;99.90
35027;DHT22;60696;51.426;6.934;2023-08-31T14:45:13;17.00;99.90
35027;DHT22;60696;51.426;6.934;2023-08-31T14:47:38;16.80;1.00
35027;DHT22;60696;51.426;6.934;2023-08-31T14:50:04;16.90;1.00
35027;DHT22;60696;51.426;6.934;2023-08-31T14:52:30;16.90;1.00
35027;DHT22;60696;51.426;6.934;2023-08-31T14:54:56;17.00;1.00
35027;DHT22;60696;51.426;6.934;2023-08-31T14:57:21;17.00;1.00
35027;DHT22;60696;51.426;6.934;2023-08-31T14:59:47;17.10;99.90
35027;DHT22;60696;51.426;6.934;2023-08-31T15:02:13;17.10;99.90
35027;DHT22;60696;51.426;6.934;2023-08-31T15:04:40;17.00;99.90
35027;DHT22;60696;51.426;6.934;2023-08-31T15:07:05;17.10;99.90
35027;DHT22;60696;51.426;6.934;2023-08-31T15:09:31;17.30;1.00
35027;DHT22;60696;51.426;6.934;2023-08-31T15:11:58;17.50;99.90
35027;DHT22;60696;51.426;6.934;2023-08-31T15:14:23;17.30;1.00
35027;DHT22;60696;51.426;6.934;2023-08-31T15:16:49;17.20;88.40
35027;DHT22;60696;51.426;6.934;2023-08-31T15:19:15;17.10;1.00
35027;DHT22;60696;51.426;6.934;2023-08-31T15:21:40;17.20;99.90
35027;DHT22;60696;51.426;6.934;2023-08-31T15:24:06;17.30;99.90
35027;DHT22;60696;51.426;6.934;2023-08-31T15:26:32;17.10;1.00
35027;DHT22;60696;51.426;6.934;2023-08-31T15:28:58;17.00;1.00
35027;DHT22;60696;51.426;6.934;2023-08-31T15:31:23;17.10;1.00
35027;DHT22;60696;51.426;6.934;2023-08-31T15:33:49;17.00;1.00
35027;DHT22;60696;51.426;6.934;2023-08-31T15:36:15;17.10;1.00
35027;DHT22;60696;51.426;6.934;2023-08-31T15:38:41;17.10;1.00
35027;DHT22;60696;51.426;6.934;2023-08-31T15:41:07;17.20;1.00
35027;DHT22;60696;51.426;6.934;2023-08-31T15:43:34;17.40;80.10
35027;DHT22;60696;51.426;6.934;2023-08-31T15:46:02;17.40;99.90
35027;DHT22;60696;51.426;6.934;2023-08-31T15:48:28;17.50;99.90
35027;DHT22;60696;51.426;6.934;2023-08-31T15:50:55;17.50;1.00
35027;DHT22;60696;51.426;6.934;2023-08-31T15:53:21;17.60;99.90
35027;DHT22;60696;51.426;6.934;2023-08-31T15:55:48;17.70;99.90
35027;DHT22;60696;51.426;6.934;2023-08-31T15:58:14;17.70;1.00
35027;DHT22;60696;51.426;6.934;2023-08-31T16:00:40;17.80;1.00
35027;DHT22;60696;51.426;6.934;2023-08-31T16:03:05;17.90;99.90
35027;DHT22;60696;51.426;6.934;2023-08-31T16:05:32;17.90;99.90
35027;DHT22;60696;51.426;6.934;2023-08-31T16:08:00;18.00;99.90
35027;DHT22;60696;51.426;6.934;2023-08-31T16:10:26;18.00;99.90
35027;DHT22;60696;51.426;6.934;2023-08-31T16:12:51;17.80;91.40
35027;DHT22;60696;51.426;6.934;2023-08-31T16:15:17;17.70;1.00
35027;DHT22;60696;51.426;6.934;2023-08-31T16:17:43;17.60;99.90
35027;DHT22;60696;51.426;6.934;2023-08-31T16:20:09;17.60;99.90
35027;DHT22;60696;51.426;6.934;2023-08-31T16:22:39;17.60;1.00
35027;DHT22;60696;51.426;6.934;2023-08-31T16:25:06;17.40;99.90
35027;DHT22;60696;51.426;6.934;2023-08-31T16:27:32;17.50;59.10
35027;DHT22;60696;51.426;6.934;2023-08-31T16:29:58;17.40;1.00
35027;DHT22;60696;51.426;6.934;2023-08-31T16:32:24;17.30;1.00
35027;DHT22;60696;51.426;6.934;2023-08-31T16:34:53;17.30;71.20
35027;DHT22;60696;51.426;6.934;2023-08-31T16:37:19;17.30;1.00
35027;DHT22;60696;51.426;6.934;2023-08-31T16:39:46;17.10;1.00
35027;DHT22;60696;51.426;6.934;2023-08-31T16:42:11;17.10;99.90
35027;DHT22;60696;51.426;6.934;2023-08-31T16:44:39;17.10;99.90
35027;DHT22;60696;51.426;6.934;2023-08-31T16:47:04;17.10;99.90
35027;DHT22;60696;51.426;6.934;2023-08-31T16:49:31;17.00;99.90
35027;DHT22;60696;51.426;6.934;2023-08-31T16:51:56;16.80;99.90
35027;DHT22;60696;51.426;6.934;2023-08-31T16:54:22;16.70;99.90
35027;DHT22;60696;51.426;6.934;2023-08-31T16:56:48;16.70;99.90
35027;DHT22;60696;51.426;6.934;2023-08-31T16:59:16;16.60;99.90
35027;DHT22;60696;51.426;6.934;2023-08-31T17:01:42;16.70;1.00
35027;DHT22;60696;51.426;6.934;2023-08-31T17:04:07;16.70;1.00
35027;DHT22;60696;51.426;6.934;2023-08-31T17:06:33;16.60;99.90
35027;DHT22;60696;51.426;6.934;2023-08-31T17:08:58;16.60;99.90
35027;DHT22;60696;51.426;6.934;2023-08-31T17:11:24;16.70;99.90
35027;DHT22;60696;51.426;6.934;2023-08-31T17:13:50;16.60;99.90
35027;DHT22;60696;51.426;6.934;2023-08-31T17:16:16;16.50;99.90
35027;DHT22;60696;51.426;6.934;2023-08-31T17:18:41;16.70;1.00
35027;DHT22;60696;51.426;6.934;2023-08-31T17:21:07;16.80;1.00
35027;DHT22;60696;51.426;6.934;2023-08-31T17:23:33;16.90;1.00
35027;DHT22;60696;51.426;6.934;2023-08-31T17:26:02;16.80;1.00
35027;DHT22;60696;51.426;6.934;2023-08-31T17:28:28;16.80;1.00
35027;DHT22;60696;51.426;6.934;2023-08-31T17:30:53;16.60;99.90
35027;DHT22;60696;51.426;6.934;2023-08-31T17:33:21;16.60;1.00
35027;DHT22;60696;51.426;6.934;2023-08-31T17:35:52;16.50;1.00
35027;DHT22;60696;51.426;6.934;2023-08-31T17:38:17;16.40;1.00
35027;DHT22;60696;51.426;6.934;2023-08-31T17:40:43;16.40;1.00
35027;DHT22;60696;51.426;6.934;2023-08-31T17:43:11;16.30;1.00
35027;DHT22;60696;51.426;6.934;2023-08-31T17:45:37;16.30;1.00
35027;DHT22;60696;51.426;6.934;2023-08-31T17:48:03;16.30;1.00
35027;DHT22;60696;51.426;6.934;2023-08-31T17:50:28;16.20;1.00
35027;DHT22;60696;51.426;6.934;2023-08-31T17:52:54;16.20;1.00
35027;DHT22;60696;51.426;6.934;2023-08-31T17:55:19;16.30;1.00
35027;DHT22;60696;51.426;6.934;2023-08-31T17:57:45;16.30;99.90
35027;DHT22;60696;51.426;6.934;2023-08-31T18:00:11;16.30;1.00
35027;DHT22;60696;51.426;6.934;2023-08-31T18:02:38;16.30;1.00
35027;DHT22;60696;51.426;6.934;2023-08-31T18:05:04;16.30;1.00
35027;DHT22;60696;51.426;6.934;2023-08-31T18:07:30;16.30;1.00
35027;DHT22;60696;51.426;6.934;2023-08-31T18:09:55;16.30;1.00
35027;DHT22;60696;51.426;6.934;2023-08-31T18:12:21;16.20;1.00
35027;DHT22;60696;51.426;6.934;2023-08-31T18:14:47;16.20;1.00
35027;DHT22;60696;51.426;6.934;2023-08-31T18:17:12;16.10;1.00
35027;DHT22;60696;51.426;6.934;2023-08-31T18:19:38;16.10;16.20
35027;DHT22;60696;51.426;6.934;2023-08-31T18:22:04;16.00;99.90
35027;DHT22;60696;51.426;6.934;2023-08-31T18:24:29;15.90;99.90
35027;DHT22;60696;51.426;6.934;2023-08-31T18:26:55;15.90;74.30
35027;DHT22;60696;51.426;6.934;2023-08-31T18:29:21;15.90;99.90
35027;DHT22;60696;51.426;6.934;2023-08-31T18:31:46;16.00;99.90
35027;DHT22;60696;51.426;6.934;2023-08-31T18:34:12;15.90;67.50
35027;DHT22;60696;51.426;6.934;2023-08-31T18:36:38;15.90;99.90
35027;DHT22;60696;51.426;6.934;2023-08-31T18:39:04;15.80;86.30
35027;DHT22;60696;51.426;6.934;2023-08-31T18:41:37;15.80;1.00
35027;DHT22;60696;51.426;6.934;2023-08-31T18:44:04;15.70;1.00
35027;DHT22;60696;51.426;6.934;2023-08-31T18:46:29;15.60;1.00
35027;DHT22;60696;51.426;6.934;2023-08-31T18:48:56;15.70;1.00
35027;DHT22;60696;51.426;6.934;2023-08-31T18:51:21;15.70;1.00
35027;DHT22;60696;51.426;6.934;2023-08-31T18:53:47;15.60;1.00
35027;DHT22;60696;51.426;6.934;2023-08-31T18:56:14;15.60;1.00
35027;DHT22;60696;51.426;6.934;2023-08-31T18:58:39;15.50;1.00
35027;DHT22;60696;51.426;6.934;2023-08-31T19:01:11;15.40;1.00
35027;DHT22;60696;51.426;6.934;2023-08-31T19:03:37;15.40;1.00
35027;DHT22;60696;51.426;6.934;2023-08-31T19:06:05;15.30;1.00
35027;DHT22;60696;51.426;6.934;2023-08-31T19:08:30;15.30;1.00
35027;DHT22;60696;51.426;6.934;2023-08-31T19:10:56;15.30;1.00
35027;DHT22;60696;51.426;6.934;2023-08-31T19:13:22;15.30;14.70
35027;DHT22;60696;51.426;6.934;2023-08-31T19:15:48;15.30;36.20
35027;DHT22;60696;51.426;6.934;2023-08-31T19:18:13;15.30;1.00
35027;DHT22;60696;51.426;6.934;2023-08-31T19:20:39;15.30;1.00
35027;DHT22;60696;51.426;6.934;2023-08-31T19:23:05;15.20;22.30
35027;DHT22;60696;51.426;6.934;2023-08-31T19:25:31;15.20;94.60
35027;DHT22;60696;51.426;6.934;2023-08-31T19:30:26;15.10;47.70
35027;DHT22;60696;51.426;6.934;2023-08-31T19:32:53;15.00;90.90
35027;DHT22;60696;51.426;6.934;2023-08-31T19:35:19;15.10;99.90